»·PEaware :: N755EG KSBA-KSNA

N755EG :: KSBA-KSNA

FLIGHT INFORMATION

Flight Status: Arrived
Operator: Privately registered:
United States
More flights under this callsign
Pilot: Anonymous 17686 (17686)
Aircraft: PIPER PA-24 COMMANCHE
(PA24)
More flights by this aircraft type
Origin: KSBA Santa Barbara Mun
United States
Destination: KSNA John Wayne-Orange Co
United States
More flights between these airports :: More routes between these airports
Route: +KWANG CMA VNY V186 BAYJY V363 POXKU V8 SLI
File this flight plan on PilotEdge
Remarks: TEC SBAP6
Altitude:
(Current/Filed)
5,000ft
Speed:
(Current/Filed)
160kts
Departed: 02-Feb-19 12:35 PM
Arrived: 02-Feb-19 01:47 PM
Distance/Time
Traveled:
108nm/1:12
Distance/Time
To Go:
Arrived

Flight Plot

Page will automatically refresh every two minutes.


Map Options




Map Legend


Flown Route
Filed Route
Departure Airport
Arrival Airport
Navaid (VOR, NDB)
Fix

Horizontal Profiles

Position Reports

Time Latitude Longitude Heading Altitude Ground
Speed
02-Feb-19 12:12 34.432499 -119.835725 70 13ft 0kts
02-Feb-19 12:13 34.432499 -119.835725 70 13ft 0kts
02-Feb-19 12:14 34.432499 -119.835725 70 13ft 0kts
02-Feb-19 12:15 34.432499 -119.835725 70 13ft 0kts
02-Feb-19 12:16 34.432499 -119.835725 70 13ft 0kts
02-Feb-19 12:17 34.432499 -119.835725 70 13ft 0kts
02-Feb-19 12:18 34.432499 -119.835725 70 13ft 0kts
02-Feb-19 12:18 34.432500 -119.835722 70 13ft 0kts
02-Feb-19 12:20 34.432501 -119.835719 70 13ft 0kts
02-Feb-19 12:21 34.432502 -119.835715 70 13ft 0kts
02-Feb-19 12:21 34.432503 -119.835713 70 13ft 0kts
02-Feb-19 12:22 34.432504 -119.835709 70 13ft 0kts
02-Feb-19 12:23 34.432505 -119.835706 70 13ft 0kts
02-Feb-19 12:24 34.432506 -119.835703 70 13ft 0kts
02-Feb-19 12:25 34.432507 -119.835700 70 13ft 0kts
02-Feb-19 12:26 34.432507 -119.835697 70 13ft 0kts
02-Feb-19 12:27 34.432508 -119.835694 70 13ft 0kts
02-Feb-19 12:28 34.432439 -119.835477 147 13ft 4kts
02-Feb-19 12:29 34.430941 -119.839234 264 13ft 10kts
02-Feb-19 12:30 34.430915 -119.839515 222 13ft 0kts
02-Feb-19 12:31 34.430910 -119.839521 222 13ft 0kts
02-Feb-19 12:32 34.430904 -119.839527 222 13ft 0kts
02-Feb-19 12:33 34.430899 -119.839533 222 13ft 0kts
02-Feb-19 12:34 34.426669 -119.839084 164 14ft 77kts
02-Feb-19 12:35 34.405504 -119.824544 141 1256ft 89kts
02-Feb-19 12:36 34.386882 -119.800789 141 2443ft 100kts
02-Feb-19 12:37 34.369440 -119.775141 141 3575ft 99kts
02-Feb-19 12:38 34.352076 -119.748620 141 4525ft 100kts
02-Feb-19 12:39 34.333652 -119.721002 141 4991ft 118kts
02-Feb-19 12:40 34.318538 -119.680098 102 4996ft 155kts
02-Feb-19 12:41 34.319003 -119.626751 104 5014ft 158kts
02-Feb-19 12:42 34.314685 -119.573584 106 5008ft 157kts
02-Feb-19 12:43 34.309588 -119.521119 105 5005ft 157kts
02-Feb-19 12:44 34.301162 -119.474615 117 5006ft 149kts
02-Feb-19 12:45 34.289014 -119.426610 115 5009ft 149kts
02-Feb-19 12:46 34.278108 -119.378069 111 5011ft 150kts
02-Feb-19 12:47 34.267174 -119.329904 114 5015ft 148kts
02-Feb-19 12:48 34.255726 -119.282355 112 5015ft 149kts
02-Feb-19 12:49 34.245887 -119.236839 115 5019ft 146kts
02-Feb-19 12:50 34.233931 -119.190117 117 5018ft 145kts
02-Feb-19 12:51 34.223697 -119.142647 114 5019ft 145kts
02-Feb-19 12:52 34.213517 -119.095444 117 5012ft 142kts
02-Feb-19 12:53 34.210462 -119.046346 91 5009ft 154kts
02-Feb-19 12:54 34.215773 -118.995465 95 5011ft 150kts
02-Feb-19 12:55 34.215287 -118.945850 97 5011ft 149kts
02-Feb-19 12:56 34.216805 -118.896158 99 5013ft 147kts
02-Feb-19 12:57 34.216784 -118.847006 100 5013ft 145kts
02-Feb-19 12:58 34.218625 -118.797934 99 5015ft 145kts
02-Feb-19 12:59 34.219033 -118.749543 102 5015ft 143kts
02-Feb-19 13:00 34.219915 -118.704480 99 5016ft 144kts
02-Feb-19 13:01 34.221061 -118.656349 101 5015ft 141kts
02-Feb-19 13:02 34.221511 -118.608959 100 5016ft 141kts
02-Feb-19 13:03 34.222628 -118.561469 102 5016ft 140kts
02-Feb-19 13:04 34.222905 -118.514514 101 5013ft 139kts
02-Feb-19 13:05 34.221004 -118.469000 122 5009ft 127kts
02-Feb-19 13:06 34.206346 -118.431241 124 5016ft 125kts
02-Feb-19 13:07 34.193173 -118.392106 121 5016ft 127kts
02-Feb-19 13:08 34.181491 -118.351926 121 5008ft 126kts
02-Feb-19 13:09 34.168927 -118.312524 121 5009ft 126kts
02-Feb-19 13:10 34.157442 -118.273089 121 5104ft 120kts
02-Feb-19 13:11 34.145039 -118.233885 122 5048ft 122kts
02-Feb-19 13:12 34.133160 -118.194532 121 5018ft 124kts
02-Feb-19 13:13 34.121350 -118.155641 122 5017ft 123kts
02-Feb-19 13:14 34.110203 -118.119467 121 5026ft 123kts
02-Feb-19 13:15 34.098283 -118.080072 122 5034ft 122kts
02-Feb-19 13:16 34.086257 -118.041596 122 5037ft 122kts
02-Feb-19 13:17 34.074560 -118.003008 122 5039ft 122kts
02-Feb-19 13:18 34.062611 -117.964385 123 5037ft 122kts
02-Feb-19 13:19 34.050725 -117.925774 122 5033ft 123kts
02-Feb-19 13:20 34.038869 -117.887117 122 5031ft 122kts
02-Feb-19 13:21 34.026872 -117.848644 122 5029ft 122kts
02-Feb-19 13:22 34.014971 -117.809967 121 5029ft 123kts
02-Feb-19 13:23 33.999143 -117.775427 153 5026ft 112kts
02-Feb-19 13:24 33.969120 -117.781086 191 5024ft 116kts
02-Feb-19 13:25 33.939999 -117.782861 178 5024ft 112kts
02-Feb-19 13:26 33.908619 -117.783292 177 5024ft 112kts
02-Feb-19 13:27 33.876567 -117.781769 159 4385ft 128kts
02-Feb-19 13:28 33.854785 -117.749813 138 3299ft 121kts
02-Feb-19 13:29 33.820046 -117.747116 203 1969ft 130kts
02-Feb-19 13:30 33.812394 -117.781351 293 2802ft 134kts
02-Feb-19 13:31 33.830860 -117.825667 294 3040ft 162kts
02-Feb-19 13:32 33.851263 -117.876760 294 3032ft 173kts
02-Feb-19 13:33 33.870161 -117.927125 305 3025ft 176kts
02-Feb-19 13:34 33.900030 -117.916847 88 3054ft 127kts
02-Feb-19 13:35 33.904797 -117.874306 88 3043ft 127kts
02-Feb-19 13:36 33.897228 -117.834376 112 3041ft 122kts
02-Feb-19 13:37 33.886647 -117.795137 110 3042ft 123kts
02-Feb-19 13:38 33.868569 -117.765206 178 3040ft 133kts
02-Feb-19 13:39 33.831822 -117.772487 180 3020ft 130kts
02-Feb-19 13:40 33.798703 -117.792352 197 2841ft 137kts
02-Feb-19 13:41 33.765376 -117.813439 214 1583ft 112kts
02-Feb-19 13:42 33.741243 -117.829304 193 1062ft 112kts
02-Feb-19 13:43 33.717018 -117.842787 203 735ft 101kts
02-Feb-19 13:44 33.698468 -117.855215 208 217ft 69kts
02-Feb-19 13:45 33.680467 -117.865858 203 75ft 61kts
02-Feb-19 13:46 33.674681 -117.868572 165 59ft 8kts
02-Feb-19 13:47 33.674375 -117.868444 137 59ft 1kts
02-Feb-19 13:48 33.672859 -117.866998 96 59ft 12kts
02-Feb-19 13:49 33.672737 -117.866628 167 59ft 0kts
02-Feb-19 13:50 33.672737 -117.866628 167 59ft 0kts

Navigation Log

Ident Type
Flight plan parsing failed, navigation log unavailable